Terminal Aerodrome Forecast
Issued by NWS

Home | Current Version | Previous Version | Text Only | Print | Product List | Glossary Off
Versions: 1 2 3 4 5 6 7 8 9 10 11 12 13 14 15 16 17 18 19 20

000
FTUS43 KABR 072300
TAFMBG
TAF
KMBG 072331Z 0800/0824 32020G26KT P6SM FEW040
     FM080300 32009KT P6SM SKC
     FM081500 33015G21KT P6SM SCT030=

USA.gov is the U.S. government's official web portal to all federal, state and local government web resources and services.